sensor_id;sensor_type;location;lat;lon;timestamp;pressure;altitude;pressure_sealevel;temperature;humidity
75157;BME280;63736;50.076;8.198;2023-04-06T00:00:39;99833.31;;;0.76;61.58
75157;BME280;63736;50.076;8.198;2023-04-06T00:03:04;99830.84;;;0.71;62.13
75157;BME280;63736;50.076;8.198;2023-04-06T00:05:29;99831.91;;;0.67;62.02
75157;BME280;63736;50.076;8.198;2023-04-06T00:07:57;99826.81;;;0.62;61.58
75157;BME280;63736;50.076;8.198;2023-04-06T00:10:22;99827.84;;;0.58;62.53
75157;BME280;63736;50.076;8.198;2023-04-06T00:12:47;99826.19;;;0.56;62.67
75157;BME280;63736;50.076;8.198;2023-04-06T00:15:13;99819.31;;;0.52;62.64
75157;BME280;63736;50.076;8.198;2023-04-06T00:17:38;99827.28;;;0.50;62.90
75157;BME280;63736;50.076;8.198;2023-04-06T00:20:04;99820.38;;;0.47;63.05
75157;BME280;63736;50.076;8.198;2023-04-06T00:22:29;99828.38;;;0.44;63.64
75157;BME280;63736;50.076;8.198;2023-04-06T00:24:54;99818.88;;;0.40;63.92
75157;BME280;63736;50.076;8.198;2023-04-06T00:27:20;99813.81;;;0.36;64.11
75157;BME280;63736;50.076;8.198;2023-04-06T00:29:45;99817.47;;;0.31;64.63
75157;BME280;63736;50.076;8.198;2023-04-06T00:32:10;99813.13;;;0.30;65.03
75157;BME280;63736;50.076;8.198;2023-04-06T00:34:36;99806.31;;;0.25;65.14
75157;BME280;63736;50.076;8.198;2023-04-06T00:37:01;99803.00;;;0.20;65.18
75157;BME280;63736;50.076;8.198;2023-04-06T00:39:26;99808.34;;;0.16;65.76
75157;BME280;63736;50.076;8.198;2023-04-06T00:41:52;99811.03;;;0.15;66.96
75157;BME280;63736;50.076;8.198;2023-04-06T00:44:19;99799.84;;;0.10;66.08
75157;BME280;63736;50.076;8.198;2023-04-06T00:46:45;99789.50;;;0.05;66.20
75157;BME280;63736;50.076;8.198;2023-04-06T00:49:10;99795.78;;;0.01;66.90
75157;BME280;63736;50.076;8.198;2023-04-06T00:51:36;99787.19;;;-0.03;67.16
75157;BME280;63736;50.076;8.198;2023-04-06T00:54:01;99788.19;;;-0.07;67.71
75157;BME280;63736;50.076;8.198;2023-04-06T00:56:26;99783.16;;;-0.13;68.28
75157;BME280;63736;50.076;8.198;2023-04-06T00:58:52;99779.78;;;-0.17;67.90
75157;BME280;63736;50.076;8.198;2023-04-06T01:01:17;99779.88;;;-0.20;68.30
75157;BME280;63736;50.076;8.198;2023-04-06T01:03:42;99775.59;;;-0.22;68.98
75157;BME280;63736;50.076;8.198;2023-04-06T01:06:09;99785.19;;;-0.21;68.41
75157;BME280;63736;50.076;8.198;2023-04-06T01:08:36;99777.09;;;-0.15;67.98
75157;BME280;63736;50.076;8.198;2023-04-06T01:11:01;99771.84;;;-0.15;67.99
75157;BME280;63736;50.076;8.198;2023-04-06T01:13:26;99777.09;;;-0.15;68.31
75157;BME280;63736;50.076;8.198;2023-04-06T01:15:52;99773.44;;;-0.11;68.53
75157;BME280;63736;50.076;8.198;2023-04-06T01:18:18;99773.28;;;-0.06;67.77
75157;BME280;63736;50.076;8.198;2023-04-06T01:20:43;99768.78;;;-0.03;67.48
75157;BME280;63736;50.076;8.198;2023-04-06T01:23:08;99772.22;;;-0.01;67.68
75157;BME280;63736;50.076;8.198;2023-04-06T01:25:33;99761.63;;;0.01;68.29
75157;BME280;63736;50.076;8.198;2023-04-06T01:27:59;99763.34;;;0.02;67.42
75157;BME280;63736;50.076;8.198;2023-04-06T01:30:24;99759.81;;;0.03;67.51
75157;BME280;63736;50.076;8.198;2023-04-06T01:32:49;99761.53;;;0.04;67.20
75157;BME280;63736;50.076;8.198;2023-04-06T01:35:17;99757.13;;;0.05;67.05
75157;BME280;63736;50.076;8.198;2023-04-06T01:37:42;99762.50;;;0.02;67.27
75157;BME280;63736;50.076;8.198;2023-04-06T01:40:08;99754.78;;;-0.03;68.03
75157;BME280;63736;50.076;8.198;2023-04-06T01:42:33;99756.72;;;-0.08;67.68
75157;BME280;63736;50.076;8.198;2023-04-06T01:44:58;99748.16;;;-0.13;68.36
75157;BME280;63736;50.076;8.198;2023-04-06T01:47:24;99750.91;;;-0.17;68.99
75157;BME280;63736;50.076;8.198;2023-04-06T01:49:49;99750.09;;;-0.19;68.77
75157;BME280;63736;50.076;8.198;2023-04-06T01:52:15;99751.97;;;-0.22;69.33
75157;BME280;63736;50.076;8.198;2023-04-06T01:54:40;99745.19;;;-0.28;69.53
75157;BME280;63736;50.076;8.198;2023-04-06T01:57:06;99750.56;;;-0.31;69.66
75157;BME280;63736;50.076;8.198;2023-04-06T01:59:31;99745.44;;;-0.36;69.73
75157;BME280;63736;50.076;8.198;2023-04-06T02:01:56;99748.25;;;-0.40;70.41
75157;BME280;63736;50.076;8.198;2023-04-06T02:04:21;99754.50;;;-0.44;70.55
75157;BME280;63736;50.076;8.198;2023-04-06T02:06:47;99747.66;;;-0.48;71.29
75157;BME280;63736;50.076;8.198;2023-04-06T02:09:12;99757.34;;;-0.51;72.02
75157;BME280;63736;50.076;8.198;2023-04-06T02:11:37;99747.00;;;-0.55;71.76
75157;BME280;63736;50.076;8.198;2023-04-06T02:14:02;99746.25;;;-0.59;72.68
75157;BME280;63736;50.076;8.198;2023-04-06T02:16:28;99750.72;;;-0.61;72.27
75157;BME280;63736;50.076;8.198;2023-04-06T02:18:53;99749.06;;;-0.63;72.78
75157;BME280;63736;50.076;8.198;2023-04-06T02:21:18;99757.00;;;-0.67;73.68
75157;BME280;63736;50.076;8.198;2023-04-06T02:23:48;99755.41;;;-0.71;73.30
75157;BME280;63736;50.076;8.198;2023-04-06T02:26:14;99752.03;;;-0.74;73.81
75157;BME280;63736;50.076;8.198;2023-04-06T02:28:40;99751.22;;;-0.76;74.35
75157;BME280;63736;50.076;8.198;2023-04-06T02:31:05;99753.03;;;-0.78;74.70
75157;BME280;63736;50.076;8.198;2023-04-06T02:33:30;99742.66;;;-0.81;75.01
75157;BME280;63736;50.076;8.198;2023-04-06T02:35:55;99747.03;;;-0.82;75.13
75157;BME280;63736;50.076;8.198;2023-04-06T02:38:21;99747.09;;;-0.84;75.68
75157;BME280;63736;50.076;8.198;2023-04-06T02:40:46;99750.59;;;-0.83;75.99
75157;BME280;63736;50.076;8.198;2023-04-06T02:43:11;99734.94;;;-0.86;75.58
75157;BME280;63736;50.076;8.198;2023-04-06T02:45:36;99746.38;;;-0.89;75.85
75157;BME280;63736;50.076;8.198;2023-04-06T02:48:02;99745.53;;;-0.89;76.27
75157;BME280;63736;50.076;8.198;2023-04-06T02:50:27;99739.47;;;-0.91;76.45
75157;BME280;63736;50.076;8.198;2023-04-06T02:52:53;99739.47;;;-0.91;76.20
75157;BME280;63736;50.076;8.198;2023-04-06T02:55:18;99747.41;;;-0.93;76.54
75157;BME280;63736;50.076;8.198;2023-04-06T02:57:44;99736.13;;;-0.95;77.05
75157;BME280;63736;50.076;8.198;2023-04-06T03:00:11;99737.03;;;-0.96;77.05
75157;BME280;63736;50.076;8.198;2023-04-06T03:02:36;99739.69;;;-0.97;77.00
75157;BME280;63736;50.076;8.198;2023-04-06T03:05:01;99737.09;;;-0.99;76.81
75157;BME280;63736;50.076;8.198;2023-04-06T03:07:28;99734.53;;;-1.01;77.42
75157;BME280;63736;50.076;8.198;2023-04-06T03:09:53;99735.44;;;-1.02;77.29
75157;BME280;63736;50.076;8.198;2023-04-06T03:12:18;99744.19;;;-1.01;77.20
75157;BME280;63736;50.076;8.198;2023-04-06T03:14:44;99734.66;;;-1.04;77.58
75157;BME280;63736;50.076;8.198;2023-04-06T03:17:09;99736.44;;;-1.06;77.33
75157;BME280;63736;50.076;8.198;2023-04-06T03:19:34;99734.72;;;-1.05;77.47
75157;BME280;63736;50.076;8.198;2023-04-06T03:22:00;99733.03;;;-1.08;77.33
75157;BME280;63736;50.076;8.198;2023-04-06T03:24:26;99735.66;;;-1.08;77.17
75157;BME280;63736;50.076;8.198;2023-04-06T03:26:51;99732.16;;;-1.08;77.09
75157;BME280;63736;50.076;8.198;2023-04-06T03:29:16;99738.28;;;-1.08;77.33
75157;BME280;63736;50.076;8.198;2023-04-06T03:31:41;99739.25;;;-1.10;77.64
75157;BME280;63736;50.076;8.198;2023-04-06T03:34:07;99739.25;;;-1.12;78.01
75157;BME280;63736;50.076;8.198;2023-04-06T03:36:34;99741.03;;;-1.12;77.39
75157;BME280;63736;50.076;8.198;2023-04-06T03:39:00;99737.59;;;-1.14;77.82
75157;BME280;63736;50.076;8.198;2023-04-06T03:41:25;99744.72;;;-1.18;77.85
75157;BME280;63736;50.076;8.198;2023-04-06T03:43:51;99745.63;;;-1.19;77.76
75157;BME280;63736;50.076;8.198;2023-04-06T03:46:16;99745.69;;;-1.21;78.29
75157;BME280;63736;50.076;8.198;2023-04-06T03:48:41;99743.97;;;-1.22;77.89
75157;BME280;63736;50.076;8.198;2023-04-06T03:51:07;99744.88;;;-1.23;78.13
75157;BME280;63736;50.076;8.198;2023-04-06T03:53:32;99746.63;;;-1.23;78.07
75157;BME280;63736;50.076;8.198;2023-04-06T03:55:57;99751.00;;;-1.24;78.25
75157;BME280;63736;50.076;8.198;2023-04-06T03:58:23;99753.63;;;-1.24;78.47
75157;BME280;63736;50.076;8.198;2023-04-06T04:00:48;99748.38;;;-1.24;78.67
75157;BME280;63736;50.076;8.198;2023-04-06T04:03:13;99751.88;;;-1.23;78.58
75157;BME280;63736;50.076;8.198;2023-04-06T04:05:39;99748.44;;;-1.25;78.83
75157;BME280;63736;50.076;8.198;2023-04-06T04:08:04;99757.19;;;-1.25;79.23
75157;BME280;63736;50.076;8.198;2023-04-06T04:10:29;99758.06;;;-1.26;79.13
75157;BME280;63736;50.076;8.198;2023-04-06T04:12:55;99750.22;;;-1.26;79.45
75157;BME280;63736;50.076;8.198;2023-04-06T04:15:20;99763.31;;;-1.26;79.58
75157;BME280;63736;50.076;8.198;2023-04-06T04:17:45;99761.53;;;-1.25;79.87
75157;BME280;63736;50.076;8.198;2023-04-06T04:20:15;99758.94;;;-1.25;79.81
75157;BME280;63736;50.076;8.198;2023-04-06T04:22:41;99766.84;;;-1.27;80.04
75157;BME280;63736;50.076;8.198;2023-04-06T04:25:07;99760.75;;;-1.27;80.08
75157;BME280;63736;50.076;8.198;2023-04-06T04:27:33;99766.03;;;-1.29;80.18
75157;BME280;63736;50.076;8.198;2023-04-06T04:29:58;99767.75;;;-1.28;80.43
75157;BME280;63736;50.076;8.198;2023-04-06T04:32:23;99771.31;;;-1.30;80.31
75157;BME280;63736;50.076;8.198;2023-04-06T04:34:52;99767.84;;;-1.31;80.63
75157;BME280;63736;50.076;8.198;2023-04-06T04:37:17;99767.03;;;-1.33;80.53
75157;BME280;63736;50.076;8.198;2023-04-06T04:39:43;99770.53;;;-1.33;80.77
75157;BME280;63736;50.076;8.198;2023-04-06T04:42:08;99771.41;;;-1.34;80.59
75157;BME280;63736;50.076;8.198;2023-04-06T04:44:33;99770.53;;;-1.33;80.88
75157;BME280;63736;50.076;8.198;2023-04-06T04:46:59;99772.22;;;-1.31;80.75
75157;BME280;63736;50.076;8.198;2023-04-06T04:49:24;99772.13;;;-1.28;81.48
75157;BME280;63736;50.076;8.198;2023-04-06T04:51:50;99770.28;;;-1.25;80.93
75157;BME280;63736;50.076;8.198;2023-04-06T04:54:17;99775.41;;;-1.22;80.95
75157;BME280;63736;50.076;8.198;2023-04-06T04:56:43;99773.56;;;-1.18;80.90
75157;BME280;63736;50.076;8.198;2023-04-06T04:59:08;99769.03;;;-1.13;80.44
75157;BME280;63736;50.076;8.198;2023-04-06T05:01:33;99771.44;;;-1.07;80.51
75157;BME280;63736;50.076;8.198;2023-04-06T05:03:58;99769.53;;;-1.02;80.78
75157;BME280;63736;50.076;8.198;2023-04-06T05:06:24;99771.91;;;-0.94;79.77
75157;BME280;63736;50.076;8.198;2023-04-06T05:08:50;99770.75;;;-0.85;79.88
75157;BME280;63736;50.076;8.198;2023-04-06T05:11:15;99770.44;;;-0.76;79.64
75157;BME280;63736;50.076;8.198;2023-04-06T05:13:41;99767.50;;;-0.67;79.11
75157;BME280;63736;50.076;8.198;2023-04-06T05:16:06;99774.22;;;-0.58;79.09
75157;BME280;63736;50.076;8.198;2023-04-06T05:18:31;99773.81;;;-0.45;78.59
75157;BME280;63736;50.076;8.198;2023-04-06T05:20:57;99774.31;;;-0.36;77.93
75157;BME280;63736;50.076;8.198;2023-04-06T05:23:22;99770.41;;;-0.24;77.75
75157;BME280;63736;50.076;8.198;2023-04-06T05:25:47;99769.09;;;-0.12;77.03
75157;BME280;63736;50.076;8.198;2023-04-06T05:28:13;99769.53;;;0.01;76.86
75157;BME280;63736;50.076;8.198;2023-04-06T05:30:42;99772.50;;;0.15;76.29
75157;BME280;63736;50.076;8.198;2023-04-06T05:33:08;99778.16;;;0.28;75.33
75157;BME280;63736;50.076;8.198;2023-04-06T05:35:34;99781.09;;;0.43;75.71
75157;BME280;63736;50.076;8.198;2023-04-06T05:37:59;99771.78;;;0.58;75.55
75157;BME280;63736;50.076;8.198;2023-04-06T05:40:25;99772.94;;;0.73;74.67
75157;BME280;63736;50.076;8.198;2023-04-06T05:42:51;99774.06;;;0.89;74.64
75157;BME280;63736;50.076;8.198;2023-04-06T05:45:16;99770.72;;;1.28;74.81
75157;BME280;63736;50.076;8.198;2023-04-06T05:47:44;99781.75;;;2.38;73.40
75157;BME280;63736;50.076;8.198;2023-04-06T05:50:13;99771.03;;;3.69;69.45
75157;BME280;63736;50.076;8.198;2023-04-06T05:52:38;99763.78;;;5.03;64.52
75157;BME280;63736;50.076;8.198;2023-04-06T05:55:06;99753.28;;;6.22;59.39
75157;BME280;63736;50.076;8.198;2023-04-06T05:57:31;99752.94;;;7.24;55.56
75157;BME280;63736;50.076;8.198;2023-04-06T05:59:57;99755.25;;;8.21;52.80
75157;BME280;63736;50.076;8.198;2023-04-06T06:02:22;99755.00;;;9.11;49.49
75157;BME280;63736;50.076;8.198;2023-04-06T06:04:47;99752.34;;;9.94;47.03
75157;BME280;63736;50.076;8.198;2023-04-06T06:07:14;99757.72;;;10.73;44.26
75157;BME280;63736;50.076;8.198;2023-04-06T06:09:39;99757.03;;;11.36;43.06
75157;BME280;63736;50.076;8.198;2023-04-06T06:12:05;99757.41;;;11.95;42.35
75157;BME280;63736;50.076;8.198;2023-04-06T06:14:30;99755.75;;;12.55;41.36
75157;BME280;63736;50.076;8.198;2023-04-06T06:16:55;99755.03;;;13.14;40.40
75157;BME280;63736;50.076;8.198;2023-04-06T06:19:20;99752.94;;;13.76;38.81
75157;BME280;63736;50.076;8.198;2023-04-06T06:21:46;99758.22;;;14.43;37.59
75157;BME280;63736;50.076;8.198;2023-04-06T06:24:11;99747.78;;;14.96;35.35
75157;BME280;63736;50.076;8.198;2023-04-06T06:26:36;99747.88;;;15.40;34.58
75157;BME280;63736;50.076;8.198;2023-04-06T06:29:03;99754.47;;;15.82;33.55
75157;BME280;63736;50.076;8.198;2023-04-06T06:31:30;99760.44;;;16.20;33.21
75157;BME280;63736;50.076;8.198;2023-04-06T06:33:55;99755.72;;;16.57;32.06
75157;BME280;63736;50.076;8.198;2023-04-06T06:36:20;99752.38;;;16.97;31.74
75157;BME280;63736;50.076;8.198;2023-04-06T06:38:46;99750.41;;;17.32;30.99
75157;BME280;63736;50.076;8.198;2023-04-06T06:41:11;99742.63;;;17.71;30.02
75157;BME280;63736;50.076;8.198;2023-04-06T06:43:36;99748.50;;;18.07;29.62
75157;BME280;63736;50.076;8.198;2023-04-06T06:46:02;99763.94;;;18.55;28.71
75157;BME280;63736;50.076;8.198;2023-04-06T06:48:28;99759.38;;;18.95;28.14
75157;BME280;63736;50.076;8.198;2023-04-06T06:50:53;99754.84;;;19.42;28.15
75157;BME280;63736;50.076;8.198;2023-04-06T06:53:19;99760.31;;;19.95;27.34
75157;BME280;63736;50.076;8.198;2023-04-06T06:55:45;99754.50;;;20.51;26.13
75157;BME280;63736;50.076;8.198;2023-04-06T06:58:10;99767.47;;;20.86;25.69
75157;BME280;63736;50.076;8.198;2023-04-06T07:00:36;99765.06;;;21.12;25.65
75157;BME280;63736;50.076;8.198;2023-04-06T07:03:01;99757.31;;;21.31;24.55
75157;BME280;63736;50.076;8.198;2023-04-06T07:05:27;99761.47;;;21.49;24.13
75157;BME280;63736;50.076;8.198;2023-04-06T07:07:53;99756.91;;;21.71;24.14
75157;BME280;63736;50.076;8.198;2023-04-06T07:10:18;99760.06;;;22.03;23.66
75157;BME280;63736;50.076;8.198;2023-04-06T07:12:44;99749.78;;;22.26;23.48
75157;BME280;63736;50.076;8.198;2023-04-06T07:15:10;99756.66;;;22.57;23.24
75157;BME280;63736;50.076;8.198;2023-04-06T07:17:35;99756.59;;;22.92;22.82
75157;BME280;63736;50.076;8.198;2023-04-06T07:20:01;99749.53;;;23.12;21.91
75157;BME280;63736;50.076;8.198;2023-04-06T07:22:26;99755.03;;;23.32;22.07
75157;BME280;63736;50.076;8.198;2023-04-06T07:24:51;99756.56;;;23.48;21.90
75157;BME280;63736;50.076;8.198;2023-04-06T07:27:17;99762.88;;;23.68;21.50
75157;BME280;63736;50.076;8.198;2023-04-06T07:29:43;99755.13;;;23.99;20.87
75157;BME280;63736;50.076;8.198;2023-04-06T07:32:09;99757.59;;;24.34;20.97
75157;BME280;63736;50.076;8.198;2023-04-06T07:34:35;99764.47;;;24.63;20.40
75157;BME280;63736;50.076;8.198;2023-04-06T07:37:00;99761.84;;;24.88;20.17
75157;BME280;63736;50.076;8.198;2023-04-06T07:39:26;99760.25;;;24.61;20.14
75157;BME280;63736;50.076;8.198;2023-04-06T07:41:52;99757.53;;;24.67;19.94
75157;BME280;63736;50.076;8.198;2023-04-06T07:44:17;99755.06;;;24.98;19.47
75157;BME280;63736;50.076;8.198;2023-04-06T07:46:42;99761.97;;;25.00;19.40
75157;BME280;63736;50.076;8.198;2023-04-06T07:49:08;99758.25;;;24.95;19.07
75157;BME280;63736;50.076;8.198;2023-04-06T07:51:38;99759.25;;;25.00;19.40
75157;BME280;63736;50.076;8.198;2023-04-06T07:54:04;99758.75;;;25.17;19.06
75157;BME280;63736;50.076;8.198;2023-04-06T07:56:29;99749.97;;;25.47;19.07
75157;BME280;63736;50.076;8.198;2023-04-06T07:58:54;99755.97;;;25.62;18.60
75157;BME280;63736;50.076;8.198;2023-04-06T08:01:22;99754.84;;;25.38;18.57
75157;BME280;63736;50.076;8.198;2023-04-06T08:03:47;99756.97;;;25.68;18.34
75157;BME280;63736;50.076;8.198;2023-04-06T08:06:12;99753.50;;;26.04;17.63
75157;BME280;63736;50.076;8.198;2023-04-06T08:08:38;99754.44;;;26.17;17.48
75157;BME280;63736;50.076;8.198;2023-04-06T08:11:03;99751.34;;;26.50;17.17
75157;BME280;63736;50.076;8.198;2023-04-06T08:13:28;99756.00;;;26.50;17.03
75157;BME280;63736;50.076;8.198;2023-04-06T08:15:54;99755.00;;;26.81;16.85
75157;BME280;63736;50.076;8.198;2023-04-06T08:18:19;99751.44;;;26.81;16.79
75157;BME280;63736;50.076;8.198;2023-04-06T08:20:45;99755.19;;;26.98;16.41
75157;BME280;63736;50.076;8.198;2023-04-06T08:23:10;99756.78;;;27.06;16.64
75157;BME280;63736;50.076;8.198;2023-04-06T08:25:36;99765.72;;;27.01;16.34
75157;BME280;63736;50.076;8.198;2023-04-06T08:28:02;99759.53;;;27.06;16.62
75157;BME280;63736;50.076;8.198;2023-04-06T08:30:28;99758.88;;;27.23;16.07
75157;BME280;63736;50.076;8.198;2023-04-06T08:32:54;99766.16;;;27.59;16.06
75157;BME280;63736;50.076;8.198;2023-04-06T08:35:19;99765.09;;;27.48;16.31
75157;BME280;63736;50.076;8.198;2023-04-06T08:37:44;99759.97;;;27.33;16.07
75157;BME280;63736;50.076;8.198;2023-04-06T08:40:11;99764.59;;;27.51;16.04
75157;BME280;63736;50.076;8.198;2023-04-06T08:42:40;99760.00;;;27.88;16.01
75157;BME280;63736;50.076;8.198;2023-04-06T08:45:08;99765.78;;;27.44;16.12
75157;BME280;63736;50.076;8.198;2023-04-06T08:47:34;99758.84;;;27.11;15.82
75157;BME280;63736;50.076;8.198;2023-04-06T08:50:03;99757.44;;;27.20;16.21
75157;BME280;63736;50.076;8.198;2023-04-06T08:52:31;99762.44;;;27.23;16.33
75157;BME280;63736;50.076;8.198;2023-04-06T08:54:57;99761.34;;;27.12;16.47
75157;BME280;63736;50.076;8.198;2023-04-06T08:57:22;99759.81;;;27.16;16.07
75157;BME280;63736;50.076;8.198;2023-04-06T08:59:49;99767.75;;;27.36;15.84
75157;BME280;63736;50.076;8.198;2023-04-06T09:02:17;99758.19;;;27.27;15.43
75157;BME280;63736;50.076;8.198;2023-04-06T09:04:45;99762.66;;;27.40;15.83
75157;BME280;63736;50.076;8.198;2023-04-06T09:07:11;99767.16;;;27.04;15.96
75157;BME280;63736;50.076;8.198;2023-04-06T09:09:36;99757.34;;;26.96;16.28
75157;BME280;63736;50.076;8.198;2023-04-06T09:12:02;99762.91;;;26.71;16.07
75157;BME280;63736;50.076;8.198;2023-04-06T09:14:37;99753.47;;;26.48;15.92
75157;BME280;63736;50.076;8.198;2023-04-06T09:17:03;99758.91;;;26.11;16.21
75157;BME280;63736;50.076;8.198;2023-04-06T09:19:28;99762.53;;;25.80;16.54
75157;BME280;63736;50.076;8.198;2023-04-06T09:22:04;99761.34;;;25.94;16.88
75157;BME280;63736;50.076;8.198;2023-04-06T09:24:39;99757.63;;;26.14;16.68
75157;BME280;63736;50.076;8.198;2023-04-06T09:27:06;99756.41;;;26.28;16.92
75157;BME280;63736;50.076;8.198;2023-04-06T09:29:31;99747.63;;;26.26;16.42
75157;BME280;63736;50.076;8.198;2023-04-06T09:32:07;99750.88;;;26.16;16.88
75157;BME280;63736;50.076;8.198;2023-04-06T09:34:36;99749.72;;;25.80;16.97
75157;BME280;63736;50.076;8.198;2023-04-06T09:37:18;99751.72;;;25.66;17.12
75157;BME280;63736;50.076;8.198;2023-04-06T09:39:45;99751.78;;;25.21;17.47
75157;BME280;63736;50.076;8.198;2023-04-06T09:42:33;99748.41;;;25.19;17.81
75157;BME280;63736;50.076;8.198;2023-04-06T09:44:58;99744.41;;;24.89;18.18
75157;BME280;63736;50.076;8.198;2023-04-06T09:47:23;99749.50;;;24.66;18.67
75157;BME280;63736;50.076;8.198;2023-04-06T09:49:50;99743.97;;;24.20;18.65
75157;BME280;63736;50.076;8.198;2023-04-06T09:52:21;99739.59;;;23.66;19.03
75157;BME280;63736;50.076;8.198;2023-04-06T09:54:49;99734.00;;;22.50;19.90
75157;BME280;63736;50.076;8.198;2023-04-06T10:00:06;99742.03;;;20.57;21.95
75157;BME280;63736;50.076;8.198;2023-04-06T10:02:58;99743.63;;;20.06;22.71
75157;BME280;63736;50.076;8.198;2023-04-06T10:08:09;99734.56;;;19.14;23.89
75157;BME280;63736;50.076;8.198;2023-04-06T10:10:35;99736.47;;;18.66;24.31
75157;BME280;63736;50.076;8.198;2023-04-06T10:13:01;99741.72;;;18.28;24.88
75157;BME280;63736;50.076;8.198;2023-04-06T10:15:30;99730.44;;;17.99;25.56
75157;BME280;63736;50.076;8.198;2023-04-06T10:17:57;99729.28;;;17.86;25.94
75157;BME280;63736;50.076;8.198;2023-04-06T10:23:08;99727.41;;;17.86;26.14
75157;BME280;63736;50.076;8.198;2023-04-06T10:25:39;99728.13;;;17.72;26.61
75157;BME280;63736;50.076;8.198;2023-04-06T10:28:06;99726.91;;;17.66;26.60
75157;BME280;63736;50.076;8.198;2023-04-06T10:30:33;99722.88;;;17.70;26.51
75157;BME280;63736;50.076;8.198;2023-04-06T10:32:58;99725.06;;;17.75;26.07
75157;BME280;63736;50.076;8.198;2023-04-06T10:35:24;99724.41;;;17.56;26.46
75157;BME280;63736;50.076;8.198;2023-04-06T10:38:00;99723.53;;;17.31;26.57
75157;BME280;63736;50.076;8.198;2023-04-06T10:40:26;99716.13;;;17.33;26.99
75157;BME280;63736;50.076;8.198;2023-04-06T10:42:53;99722.38;;;17.42;26.80
75157;BME280;63736;50.076;8.198;2023-04-06T10:45:23;99713.78;;;17.55;27.18
75157;BME280;63736;50.076;8.198;2023-04-06T10:47:52;99707.38;;;17.39;27.59
75157;BME280;63736;50.076;8.198;2023-04-06T10:50:18;99709.03;;;17.32;27.90
75157;BME280;63736;50.076;8.198;2023-04-06T10:52:44;99709.38;;;17.37;27.84
75157;BME280;63736;50.076;8.198;2023-04-06T10:55:12;99708.03;;;17.58;27.46
75157;BME280;63736;50.076;8.198;2023-04-06T10:57:38;99699.06;;;17.74;27.40
75157;BME280;63736;50.076;8.198;2023-04-06T11:00:07;99702.91;;;17.88;27.70
75157;BME280;63736;50.076;8.198;2023-04-06T11:02:35;99699.38;;;17.87;27.40
75157;BME280;63736;50.076;8.198;2023-04-06T11:05:04;99698.53;;;17.87;27.44
75157;BME280;63736;50.076;8.198;2023-04-06T11:07:29;99700.56;;;17.84;27.48
75157;BME280;63736;50.076;8.198;2023-04-06T11:09:56;99701.59;;;17.75;27.94
75157;BME280;63736;50.076;8.198;2023-04-06T11:12:26;99696.88;;;17.69;27.61
75157;BME280;63736;50.076;8.198;2023-04-06T11:14:59;99693.53;;;17.50;28.13
75157;BME280;63736;50.076;8.198;2023-04-06T11:17:33;99689.97;;;17.42;28.40
75157;BME280;63736;50.076;8.198;2023-04-06T11:19:59;99688.97;;;17.43;28.51
75157;BME280;63736;50.076;8.198;2023-04-06T11:22:25;99689.13;;;17.41;28.70
75157;BME280;63736;50.076;8.198;2023-04-06T11:24:51;99689.66;;;17.37;28.73
75157;BME280;63736;50.076;8.198;2023-04-06T11:27:18;99680.69;;;17.36;28.75
75157;BME280;63736;50.076;8.198;2023-04-06T11:29:43;99679.84;;;17.36;28.65
75157;BME280;63736;50.076;8.198;2023-04-06T11:32:11;99679.19;;;17.42;28.63
75157;BME280;63736;50.076;8.198;2023-04-06T11:34:38;99672.41;;;17.54;28.52
75157;BME280;63736;50.076;8.198;2023-04-06T11:37:10;99666.47;;;17.67;28.56
75157;BME280;63736;50.076;8.198;2023-04-06T11:39:41;99667.63;;;17.81;28.40
75157;BME280;63736;50.076;8.198;2023-04-06T11:42:07;99667.44;;;17.91;28.30
75157;BME280;63736;50.076;8.198;2023-04-06T11:44:34;99650.38;;;17.90;28.21
75157;BME280;63736;50.076;8.198;2023-04-06T11:47:02;99648.59;;;17.74;28.46
75157;BME280;63736;50.076;8.198;2023-04-06T11:49:28;99645.72;;;17.67;29.15
75157;BME280;63736;50.076;8.198;2023-04-06T11:51:54;99644.22;;;17.65;29.32
75157;BME280;63736;50.076;8.198;2023-04-06T11:54:50;99648.56;;;17.66;29.33
75157;BME280;63736;50.076;8.198;2023-04-06T11:57:16;99649.13;;;17.61;29.38
75157;BME280;63736;50.076;8.198;2023-04-06T11:59:42;99641.03;;;17.53;29.09
75157;BME280;63736;50.076;8.198;2023-04-06T12:02:07;99639.16;;;17.54;28.90
75157;BME280;63736;50.076;8.198;2023-04-06T12:04:33;99636.75;;;17.67;29.06
75157;BME280;63736;50.076;8.198;2023-04-06T12:06:58;99636.41;;;17.78;28.72
75157;BME280;63736;50.076;8.198;2023-04-06T12:09:23;99633.53;;;17.88;28.83
75157;BME280;63736;50.076;8.198;2023-04-06T12:11:49;99635.84;;;17.99;28.97
75157;BME280;63736;50.076;8.198;2023-04-06T12:14:14;99626.69;;;18.17;28.95
75157;BME280;63736;50.076;8.198;2023-04-06T12:16:40;99635.31;;;18.44;28.73
75157;BME280;63736;50.076;8.198;2023-04-06T12:19:05;99623.47;;;18.45;28.22
75157;BME280;63736;50.076;8.198;2023-04-06T12:21:31;99626.38;;;18.43;28.25
75157;BME280;63736;50.076;8.198;2023-04-06T12:23:58;99624.19;;;18.39;27.87
75157;BME280;63736;50.076;8.198;2023-04-06T12:26:23;99613.81;;;18.50;27.54
75157;BME280;63736;50.076;8.198;2023-04-06T12:28:48;99622.72;;;18.59;27.50
75157;BME280;63736;50.076;8.198;2023-04-06T12:31:18;99612.91;;;18.58;27.54
75157;BME280;63736;50.076;8.198;2023-04-06T12:33:46;99610.06;;;18.60;27.48
75157;BME280;63736;50.076;8.198;2023-04-06T12:36:12;99614.16;;;18.47;27.07
75157;BME280;63736;50.076;8.198;2023-04-06T12:38:39;99606.91;;;18.48;27.04
75157;BME280;63736;50.076;8.198;2023-04-06T12:41:06;99606.56;;;18.51;27.04
75157;BME280;63736;50.076;8.198;2023-04-06T12:43:31;99604.69;;;18.52;26.78
75157;BME280;63736;50.076;8.198;2023-04-06T12:45:56;99604.75;;;18.43;26.91
75157;BME280;63736;50.076;8.198;2023-04-06T12:48:21;99599.38;;;18.35;27.49
75157;BME280;63736;50.076;8.198;2023-04-06T12:50:54;99599.91;;;18.30;27.75
75157;BME280;63736;50.076;8.198;2023-04-06T12:53:20;99601.28;;;18.26;27.67
75157;BME280;63736;50.076;8.198;2023-04-06T12:55:45;99603.84;;;18.20;27.32
75157;BME280;63736;50.076;8.198;2023-04-06T12:58:11;99598.34;;;18.05;27.49
75157;BME280;63736;50.076;8.198;2023-04-06T13:00:36;99596.31;;;18.07;27.21
75157;BME280;63736;50.076;8.198;2023-04-06T13:03:01;99592.00;;;18.21;27.31
75157;BME280;63736;50.076;8.198;2023-04-06T13:05:27;99595.31;;;18.31;27.30